Time;durP1;ratioP1;P1;durP2;ratioP2;P2;SDS_P1;SDS_P2;PMS_P1;PMS_P2;Temp;Humidity;BMP_temperature;BMP_pressure;BME280_temperature;BME280_humidity;BME280_pressure;Samples;Min_cycle;Max_cycle;Signal;HPM_P1;HPM_P2
2022/09/11 13:35:44;;;;;;;1.30;1.20;;;24.00;99.90;;;;;;5137730;23;20515;-48
2022/09/11 13:38:33;;;;;;;1.40;1.27;;;24.60;99.90;;;;;;4839994;29;20415;-49
2022/09/11 13:41:05;;;;;;;1.30;1.20;;;24.40;99.90;;;;;;4816486;29;20947;-49
2022/09/11 13:43:35;;;;;;;1.40;1.30;;;24.70;99.90;;;;;;4856205;29;20802;-48
2022/09/11 13:46:20;;;;;;;1.43;1.30;;;24.60;99.90;;;;;;4870810;29;20453;-51
2022/09/11 13:48:48;;;;;;;3.23;1.60;;;23.90;99.90;;;;;;4857555;29;20449;-49
2022/09/11 13:51:17;;;;;;;1.77;1.67;;;23.00;99.90;;;;;;4858301;29;20939;-50
2022/09/11 13:53:53;;;;;;;1.50;1.40;;;22.40;99.90;;;;;;4858292;29;20935;-50
2022/09/11 13:56:44;;;;;;;1.80;1.53;;;22.00;99.90;;;;;;4857538;29;20461;-51
2022/09/11 13:59:35;;;;;;;1.63;1.53;;;21.70;99.90;;;;;;4857964;29;20943;-50
2022/09/11 14:02:03;;;;;;;1.70;1.60;;;21.60;99.90;;;;;;4857860;29;20493;-49
2022/09/11 14:04:29;;;;;;;2.17;2.03;;;22.40;99.90;;;;;;4848848;29;21217;-50
2022/09/11 14:06:55;;;;;;;8.90;6.23;;;23.80;99.90;;;;;;4848641;29;21188;-49
2022/09/11 14:09:21;;;;;;;2.40;1.50;;;25.10;99.90;;;;;;4847457;29;20453;-50
2022/09/11 14:11:48;;;;;;;3.00;1.40;;;25.80;99.90;;;;;;4855609;29;20641;-50
2022/09/11 14:14:24;;;;;;;1.30;1.20;;;26.60;99.90;;;;;;4859689;29;20227;-50
2022/09/11 14:16:56;;;;;;;2.70;1.70;;;27.10;99.90;;;;;;4846808;29;20489;-49
2022/09/11 14:19:31;;;;;;;1.50;1.40;;;26.60;99.90;;;;;;4849455;29;20454;-49
2022/09/11 14:21:57;;;;;;;2.70;1.47;;;25.10;99.90;;;;;;4849847;29;20488;-48
2022/09/11 14:24:32;;;;;;;1.30;1.20;;;24.00;99.90;;;;;;4847922;29;20461;-49
2022/09/11 14:27:00;;;;;;;1.40;1.30;;;23.20;99.90;;;;;;4845977;29;20465;-50
2022/09/11 14:29:29;;;;;;;1.20;1.10;;;23.20;99.90;;;;;;4852197;29;20573;-49
2022/09/11 14:32:24;;;;;;;9.13;1.40;;;23.80;99.90;;;;;;4846778;29;20908;-48
2022/09/11 14:34:49;;;;;;;2.00;1.50;;;24.40;99.90;;;;;;4852019;29;20594;-49
2022/09/11 14:37:16;;;;;;;2.20;2.10;;;24.90;99.90;;;;;;4849280;29;21206;-49
2022/09/11 14:39:45;;;;;;;1.90;1.70;;;24.60;99.90;;;;;;4851788;29;20196;-49
2022/09/11 14:42:19;;;;;;;3.60;1.70;;;23.80;99.90;;;;;;4852748;29;20480;-49
2022/09/11 14:44:45;;;;;;;1.93;1.30;;;22.90;99.90;;;;;;4840982;29;20450;-48
2022/09/11 14:47:23;;;;;;;1.50;1.40;;;22.10;99.90;;;;;;4854928;29;20503;-49
2022/09/11 14:49:54;;;;;;;1.33;1.20;;;21.60;99.90;;;;;;4859373;29;20204;-49
2022/09/11 14:52:22;;;;;;;1.80;1.70;;;21.30;99.90;;;;;;4877780;29;20436;-48
2022/09/11 14:54:47;;;;;;;2.90;1.60;;;21.10;99.90;;;;;;4862522;29;20928;-48
2022/09/11 14:57:15;;;;;;;1.60;1.50;;;21.10;99.90;;;;;;4862423;29;20425;-49
2022/09/11 14:59:42;;;;;;;3.27;1.43;;;21.30;99.90;;;;;;4862442;29;20936;-49
2022/09/11 15:02:23;;;;;;;3.13;1.77;;;21.70;99.90;;;;;;4862863;29;20409;-50
2022/09/11 15:04:49;;;;;;;1.70;1.60;;;21.80;99.90;;;;;;4861528;29;20769;-50
2022/09/11 15:07:15;;;;;;;1.60;1.30;;;21.50;99.90;;;;;;4861003;29;20875;-49
2022/09/11 15:09:42;;;;;;;1.60;1.40;;;21.20;99.90;;;;;;4861039;29;20453;-50
2022/09/11 15:12:10;;;;;;;1.70;1.60;;;21.00;99.90;;;;;;4857735;29;20521;-50
2022/09/11 15:14:37;;;;;;;1.50;1.40;;;20.80;99.90;;;;;;4860595;29;20461;-51
2022/09/11 15:17:04;;;;;;;1.57;1.47;;;20.60;99.90;;;;;;4859463;29;20998;-50
2022/09/11 15:19:30;;;;;;;1.70;1.60;;;20.60;99.90;;;;;;4860990;29;20430;-48
2022/09/11 15:21:56;;;;;;;1.57;1.33;;;20.60;99.90;;;;;;4860272;29;20469;-47
2022/09/11 15:24:24;;;;;;;1.70;1.60;;;20.70;99.90;;;;;;4855027;29;20647;-47
2022/09/11 15:26:51;;;;;;;1.60;1.50;;;20.80;99.90;;;;;;4850507;29;20478;-48
2022/09/11 15:29:17;;;;;;;1.93;1.30;;;20.90;99.90;;;;;;4851895;29;20850;-47
2022/09/11 15:31:43;;;;;;;1.70;1.60;;;21.20;99.90;;;;;;4850778;29;20480;-48
2022/09/11 15:34:10;;;;;;;1.87;1.30;;;21.30;99.90;;;;;;4849571;29;20510;-47
2022/09/11 15:36:36;;;;;;;3.33;1.60;;;21.40;99.90;;;;;;4848454;29;20257;-47
2022/09/11 15:39:04;;;;;;;1.37;1.27;;;21.30;99.90;;;;;;4852495;29;20467;-49
2022/09/11 15:41:29;;;;;;;1.67;1.40;;;21.30;99.90;;;;;;4848281;29;20456;-50
2022/09/11 15:43:55;;;;;;;1.77;1.07;;;21.30;99.90;;;;;;4848117;29;20936;-50
2022/09/11 15:46:21;;;;;;;1.50;1.40;;;21.30;99.90;;;;;;4851153;29;20219;-50
2022/09/11 15:48:48;;;;;;;5.50;1.30;;;21.20;99.90;;;;;;4848133;29;20197;-50
2022/09/11 15:51:22;;;;;;;1.60;1.50;;;21.10;99.90;;;;;;4849953;29;20987;-50
2022/09/11 15:53:47;;;;;;;1.43;1.33;;;20.90;99.90;;;;;;4848019;29;20441;-51
2022/09/11 15:56:16;;;;;;;4.43;1.43;;;20.80;99.90;;;;;;4848381;29;21007;-51
2022/09/11 15:58:44;;;;;;;2.07;1.53;;;20.70;99.90;;;;;;4849719;29;20205;-50
2022/09/11 16:01:36;;;;;;;1.40;1.30;;;20.50;99.90;;;;;;4847780;29;20565;-50
2022/09/11 16:04:09;;;;;;;1.93;1.83;;;20.30;99.90;;;;;;4847277;29;20470;-50
2022/09/11 16:06:37;;;;;;;1.80;1.70;;;20.20;99.90;;;;;;4840975;29;24390;-50
2022/09/11 16:09:05;;;;;;;1.60;1.50;;;20.00;99.90;;;;;;4845450;29;22275;-50
2022/09/11 16:11:32;;;;;;;2.47;1.77;;;19.80;99.90;;;;;;4851699;29;20919;-50
2022/09/11 16:13:58;;;;;;;5.40;1.90;;;19.60;99.90;;;;;;4853220;29;20936;-50
2022/09/11 16:16:25;;;;;;;2.07;1.70;;;19.40;99.90;;;;;;4859248;29;20449;-51
2022/09/11 16:18:50;;;;;;;1.73;1.63;;;19.30;99.90;;;;;;4852501;29;21034;-50
2022/09/11 16:21:17;;;;;;;2.17;1.97;;;19.30;99.90;;;;;;4860859;29;20484;-50
2022/09/11 16:23:44;;;;;;;2.13;1.90;;;19.20;99.90;;;;;;4851237;29;20659;-51
2022/09/11 16:26:16;;;;;;;2.90;2.20;;;19.20;99.90;;;;;;4865491;29;20471;-51
2022/09/11 16:28:42;;;;;;;2.00;1.80;;;19.20;99.90;;;;;;4855143;29;20462;-51
2022/09/11 16:31:08;;;;;;;3.87;1.83;;;19.30;99.90;;;;;;4861743;29;20437;-51
2022/09/11 16:33:42;;;;;;;1.73;1.60;;;19.30;99.90;;;;;;4859599;29;20947;-50
2022/09/11 16:36:12;;;;;;;2.27;1.70;;;19.40;99.90;;;;;;4853716;29;21004;-48
2022/09/11 16:38:38;;;;;;;4.07;1.60;;;19.40;99.90;;;;;;4866382;29;20489;-48
2022/09/11 16:41:08;;;;;;;1.97;1.57;;;19.40;99.90;;;;;;4853481;29;20473;-47
2022/09/11 16:43:35;;;;;;;1.77;1.67;;;19.50;99.90;;;;;;4860229;29;21006;-48
2022/09/11 16:46:02;;;;;;;6.70;3.67;;;19.40;99.90;;;;;;4868839;29;20467;-47
2022/09/11 16:48:29;;;;;;;33.03;24.27;;;19.40;99.90;;;;;;4864245;29;20465;-47
2022/09/11 16:50:56;;;;;;;15.83;12.70;;;19.40;99.90;;;;;;4867205;29;20461;-47
2022/09/11 16:53:27;;;;;;;11.03;9.77;;;19.50;99.90;;;;;;4857142;29;20463;-47
2022/09/11 16:55:54;;;;;;;810.07;725.50;;;19.40;99.90;;;;;;4858594;29;20482;-47
2022/09/11 16:58:20;;;;;;;124.53;111.20;;;19.30;99.90;;;;;;4862459;29;20449;-47
2022/09/11 17:00:46;;;;;;;17.17;15.40;;;19.30;99.90;;;;;;4862751;29;20942;-47
2022/09/11 17:03:13;;;;;;;27.13;24.27;;;19.30;99.90;;;;;;4867796;29;20489;-47
2022/09/11 17:05:46;;;;;;;3.47;3.17;;;19.20;99.90;;;;;;4866185;29;20282;-47
2022/09/11 17:08:11;;;;;;;3.80;3.40;;;19.20;99.90;;;;;;4859301;29;20421;-47
2022/09/11 17:10:45;;;;;;;3.57;3.10;;;19.10;99.90;;;;;;4854800;29;20442;-47
2022/09/11 17:13:11;;;;;;;2.60;2.40;;;19.10;99.90;;;;;;4851939;29;20188;-47
2022/09/11 17:15:37;;;;;;;2.53;2.33;;;19.00;99.90;;;;;;4852957;29;20456;-47
2022/09/11 17:18:03;;;;;;;7.83;2.53;;;19.00;1.00;;;;;;4857927;29;20446;-47
2022/09/11 17:20:29;;;;;;;2.33;2.13;;;19.00;1.00;;;;;;4852285;29;20779;-47
2022/09/11 17:22:54;;;;;;;5.20;1.90;;;18.90;1.00;;;;;;4857508;29;20204;-47
2022/09/11 17:25:20;;;;;;;2.80;2.03;;;18.80;1.00;;;;;;4862768;29;20914;-47
2022/09/11 17:27:46;;;;;;;4.93;2.43;;;18.70;1.00;;;;;;4862001;29;20213;-47
2022/09/11 17:30:14;;;;;;;3.23;2.60;;;18.70;1.00;;;;;;4852119;29;20453;-47
2022/09/11 17:32:40;;;;;;;2.93;2.53;;;18.60;1.00;;;;;;4855371;29;20380;-47
2022/09/11 17:35:06;;;;;;;2.73;2.53;;;18.50;1.00;;;;;;4860195;29;20548;-47
2022/09/11 17:37:31;;;;;;;2.80;2.00;;;18.40;1.00;;;;;;4856374;29;20567;-47
2022/09/11 17:39:57;;;;;;;3.40;2.73;;;18.30;1.00;;;;;;4842070;29;20469;-47
2022/09/11 17:42:23;;;;;;;4.40;2.30;;;18.20;1.00;;;;;;4837559;29;20257;-47
2022/09/11 17:44:49;;;;;;;3.00;2.50;;;18.10;1.00;;;;;;4854382;29;21012;-48
2022/09/11 17:47:14;;;;;;;2.50;2.30;;;18.00;1.00;;;;;;4854247;29;20562;-47
2022/09/11 17:49:40;;;;;;;3.43;2.60;;;17.80;1.00;;;;;;4841983;29;20245;-47
2022/09/11 17:52:06;;;;;;;2.60;2.40;;;17.70;1.00;;;;;;4853160;29;20196;-47
2022/09/11 17:54:32;;;;;;;2.70;2.50;;;17.60;1.00;;;;;;4855451;29;20201;-47
2022/09/11 17:56:58;;;;;;;2.77;2.10;;;17.50;1.00;;;;;;4852060;29;20454;-47
2022/09/11 17:59:23;;;;;;;4.83;2.47;;;17.40;1.00;;;;;;4847676;29;20524;-47
2022/09/11 18:01:49;;;;;;;4.70;1.90;;;17.30;1.00;;;;;;4860829;29;20245;-47
2022/09/11 18:04:17;;;;;;;3.00;2.10;;;17.30;1.00;;;;;;4849938;29;20204;-47
2022/09/11 18:06:42;;;;;;;2.03;1.93;;;17.30;1.00;;;;;;4845560;29;20489;-47
2022/09/11 18:09:10;;;;;;;2.33;2.13;;;17.20;1.00;;;;;;4843045;29;20494;-47
2022/09/11 18:11:41;;;;;;;2.07;1.97;;;17.20;1.00;;;;;;4842979;29;20189;-47
2022/09/11 18:14:08;;;;;;;2.70;1.87;;;17.10;1.00;;;;;;4848533;29;20941;-47
2022/09/11 18:16:34;;;;;;;2.80;2.10;;;17.10;1.00;;;;;;4848056;29;20470;-47
2022/09/11 18:19:00;;;;;;;3.40;1.93;;;17.10;1.00;;;;;;4850551;29;20445;-47
2022/09/11 18:21:26;;;;;;;2.27;2.07;;;17.00;1.00;;;;;;4856211;29;20546;-47
2022/09/11 18:23:53;;;;;;;2.30;2.00;;;17.00;1.00;;;;;;4848899;29;20460;-47
2022/09/11 18:26:22;;;;;;;2.00;1.90;;;16.90;1.00;;;;;;4858888;29;20525;-47
2022/09/11 18:28:49;;;;;;;2.20;2.00;;;16.90;1.00;;;;;;4860953;29;20529;-47
2022/09/11 18:31:15;;;;;;;2.00;1.90;;;16.80;1.00;;;;;;4859263;29;20453;-47
2022/09/11 18:33:40;;;;;;;2.50;2.00;;;16.80;1.00;;;;;;4858410;29;20497;-47
2022/09/11 18:36:12;;;;;;;2.10;1.90;;;16.80;1.00;;;;;;4859420;29;21014;-47
2022/09/11 18:38:39;;;;;;;2.10;1.90;;;16.70;15.20;;;;;;4844559;29;20206;-47
2022/09/11 18:41:04;;;;;;;3.10;2.10;;;16.70;51.20;;;;;;4861200;29;20476;-47
2022/09/11 18:43:30;;;;;;;2.13;1.93;;;16.70;54.20;;;;;;4859703;29;20484;-47
2022/09/11 18:46:01;;;;;;;2.53;2.33;;;16.60;93.50;;;;;;4844649;29;20837;-46
2022/09/11 18:48:27;;;;;;;2.13;1.93;;;16.50;99.90;;;;;;4855025;29;20185;-47
2022/09/11 18:50:53;;;;;;;7.13;2.13;;;16.50;99.90;;;;;;4859115;29;20448;-46
2022/09/11 18:53:19;;;;;;;2.07;1.97;;;16.40;99.90;;;;;;4859087;29;20640;-46
2022/09/11 18:55:44;;;;;;;2.83;2.60;;;16.40;99.90;;;;;;4860298;29;20443;-54
2022/09/11 18:58:10;;;;;;;3.53;2.17;;;16.30;99.90;;;;;;4855130;29;20196;-47
2022/09/11 19:00:37;;;;;;;6.03;2.47;;;16.20;99.90;;;;;;4858314;29;20217;-46
2022/09/11 19:03:02;;;;;;;2.30;2.20;;;16.20;99.90;;;;;;4858179;29;20567;-47
2022/09/11 19:05:29;;;;;;;2.40;2.20;;;16.10;99.90;;;;;;4860032;29;20457;-47
2022/09/11 19:07:57;;;;;;;3.03;2.47;;;16.10;99.90;;;;;;4852811;29;20216;-46
2022/09/11 19:10:23;;;;;;;3.67;2.00;;;16.00;99.90;;;;;;4858192;29;20437;-47
2022/09/11 19:12:48;;;;;;;2.63;2.43;;;15.90;1.00;;;;;;4859316;29;20966;-47
2022/09/11 19:15:15;;;;;;;3.80;2.70;;;15.90;1.00;;;;;;4861280;29;20197;-47
2022/09/11 19:17:40;;;;;;;2.33;2.13;;;15.80;1.00;;;;;;4859398;29;21285;-47
2022/09/11 19:20:08;;;;;;;2.30;2.20;;;15.70;1.00;;;;;;4858219;29;20492;-46
2022/09/11 19:22:34;;;;;;;2.97;2.73;;;15.60;1.00;;;;;;4857890;29;20627;-46
2022/09/11 19:24:59;;;;;;;2.43;2.23;;;15.60;1.00;;;;;;4856939;29;20457;-46
2022/09/11 19:27:25;;;;;;;2.00;1.90;;;15.50;48.90;;;;;;4855121;29;20232;-47
2022/09/11 19:29:52;;;;;;;2.50;2.30;;;15.50;99.90;;;;;;4852197;29;20197;-46
2022/09/11 19:32:18;;;;;;;2.50;2.30;;;15.40;99.90;;;;;;4855241;29;20197;-47
2022/09/11 19:34:44;;;;;;;2.90;2.70;;;15.30;99.90;;;;;;4857481;29;20460;-46
2022/09/11 19:37:11;;;;;;;2.40;2.20;;;15.30;99.90;;;;;;4851189;29;20498;-46
2022/09/11 19:39:37;;;;;;;3.23;2.53;;;15.20;99.90;;;;;;4855130;29;20202;-46
2022/09/11 19:42:03;;;;;;;2.57;2.37;;;15.10;1.00;;;;;;4854055;29;20461;-46
2022/09/11 19:44:33;;;;;;;2.83;2.63;;;15.00;1.00;;;;;;4853793;29;20193;-46
2022/09/11 19:47:00;;;;;;;3.53;2.93;;;15.00;52.20;;;;;;4859417;29;20488;-47
2022/09/11 19:49:25;;;;;;;2.87;2.67;;;14.90;99.90;;;;;;4855467;29;21015;-46
2022/09/11 19:51:52;;;;;;;4.20;2.90;;;14.80;99.90;;;;;;4854195;29;20530;-46
2022/09/11 19:54:18;;;;;;;3.50;3.20;;;14.80;1.00;;;;;;4858783;29;21006;-47
2022/09/11 19:56:44;;;;;;;3.57;3.10;;;14.70;89.80;;;;;;4857134;29;20441;-46
2022/09/11 19:59:10;;;;;;;2.50;2.30;;;14.70;99.90;;;;;;4859462;29;20973;-46
2022/09/11 20:01:36;;;;;;;3.77;3.47;;;14.60;99.90;;;;;;4860165;29;20449;-46
2022/09/11 20:04:02;;;;;;;4.47;3.10;;;14.60;1.00;;;;;;4879103;29;20425;-46
2022/09/11 20:06:29;;;;;;;4.00;3.30;;;14.60;7.80;;;;;;4867956;29;20485;-46
2022/09/11 20:08:57;;;;;;;3.40;3.20;;;14.50;99.90;;;;;;4856032;29;20449;-46
2022/09/11 20:11:26;;;;;;;3.90;3.00;;;14.50;99.90;;;;;;4846289;29;20450;-46
2022/09/11 20:13:59;;;;;;;3.83;3.33;;;14.40;1.00;;;;;;4859141;29;20458;-46
2022/09/11 20:16:26;;;;;;;4.53;3.57;;;14.40;1.00;;;;;;4859987;29;20414;-46
2022/09/11 20:18:57;;;;;;;3.20;3.00;;;14.30;99.90;;;;;;4858824;29;20450;-46
2022/09/11 20:21:24;;;;;;;4.10;3.80;;;14.30;1.00;;;;;;4874415;29;20428;-46
2022/09/11 20:23:53;;;;;;;6.40;3.60;;;14.20;99.90;;;;;;4870256;29;20499;-46
2022/09/11 20:26:24;;;;;;;4.10;3.70;;;14.20;1.00;;;;;;4853645;29;20478;-46
2022/09/11 20:28:56;;;;;;;4.10;3.70;;;14.20;1.00;;;;;;4840798;29;20415;-46
2022/09/11 20:31:41;;;;;;;5.07;4.20;;;14.20;99.90;;;;;;4841748;29;20433;-47
2022/09/11 20:34:07;;;;;;;3.60;3.30;;;14.10;1.00;;;;;;4848930;29;20844;-46
2022/09/11 20:36:33;;;;;;;5.10;3.90;;;14.10;1.00;;;;;;4851588;29;20497;-46
2022/09/11 20:38:59;;;;;;;3.77;3.47;;;14.10;87.00;;;;;;4852928;29;20201;-48
2022/09/11 20:41:28;;;;;;;4.60;4.20;;;14.00;99.90;;;;;;4852121;29;20667;-46
2022/09/11 20:43:54;;;;;;;6.10;4.40;;;14.00;99.90;;;;;;4851752;29;20505;-46
2022/09/11 20:46:20;;;;;;;4.60;4.07;;;13.90;1.00;;;;;;4849877;29;20570;-46
2022/09/11 20:48:50;;;;;;;4.37;3.97;;;13.90;99.90;;;;;;4851106;29;20448;-46
2022/09/11 20:51:16;;;;;;;5.23;4.13;;;13.90;1.00;;;;;;4852883;29;20197;-50
2022/09/11 20:53:44;;;;;;;4.27;3.97;;;13.80;99.90;;;;;;4850122;29;20453;-46
2022/09/11 20:56:12;;;;;;;5.10;4.60;;;13.80;1.00;;;;;;4853043;29;20450;-46
2022/09/11 20:58:39;;;;;;;4.97;4.47;;;13.80;99.90;;;;;;4851570;29;20442;-46
2022/09/11 21:01:06;;;;;;;6.90;4.70;;;13.80;99.90;;;;;;4852877;29;22396;-46
2022/09/11 21:03:32;;;;;;;4.97;4.47;;;13.70;1.00;;;;;;4826296;29;20487;-50
2022/09/11 21:06:04;;;;;;;4.77;4.37;;;13.70;1.00;;;;;;4849468;29;20802;-46
2022/09/11 21:08:30;;;;;;;5.03;4.27;;;13.60;1.00;;;;;;4851175;29;20438;-46
2022/09/11 21:11:01;;;;;;;5.83;4.73;;;13.50;99.90;;;;;;4850583;29;20445;-46
2022/09/11 21:13:26;;;;;;;5.20;4.70;;;13.50;1.00;;;;;;4849855;29;20647;-46
2022/09/11 21:15:52;;;;;;;5.10;4.30;;;13.40;1.00;;;;;;4849379;29;20448;-46
2022/09/11 21:18:17;;;;;;;7.00;5.40;;;13.40;1.00;;;;;;4848686;29;20197;-46
2022/09/11 21:20:52;;;;;;;5.50;5.00;;;13.30;1.00;;;;;;4847535;29;20189;-46
2022/09/11 21:23:18;;;;;;;6.63;5.90;;;13.30;99.90;;;;;;4850350;29;20686;-46
2022/09/11 21:25:43;;;;;;;5.40;4.90;;;13.30;99.90;;;;;;4846783;29;20453;-46
2022/09/11 21:28:09;;;;;;;7.80;5.57;;;13.20;99.90;;;;;;4849919;29;20228;-46
2022/09/11 21:30:37;;;;;;;6.53;5.47;;;13.20;99.90;;;;;;4850794;29;20189;-46
2022/09/11 21:33:02;;;;;;;5.90;4.77;;;13.10;99.90;;;;;;4850323;29;20226;-50
2022/09/11 21:35:28;;;;;;;7.40;5.50;;;13.10;1.00;;;;;;4813039;29;1082279;-46
2022/09/11 21:37:54;;;;;;;6.10;5.20;;;13.00;1.00;;;;;;4848943;29;20746;-46
2022/09/11 21:40:20;;;;;;;6.07;5.47;;;13.00;1.00;;;;;;4850678;29;20690;-46
2022/09/11 21:42:46;;;;;;;5.80;5.30;;;13.00;1.00;;;;;;4849084;29;20192;-46
2022/09/11 21:45:11;;;;;;;6.23;5.63;;;13.00;1.00;;;;;;4849147;29;20454;-46
2022/09/11 21:47:37;;;;;;;7.63;5.77;;;12.90;1.00;;;;;;4850121;29;20220;-46
2022/09/11 21:50:05;;;;;;;6.43;5.80;;;12.90;1.00;;;;;;4852653;29;20284;-46
2022/09/11 21:52:31;;;;;;;6.83;5.93;;;12.90;1.00;;;;;;4851107;29;20216;-46
2022/09/11 21:54:57;;;;;;;7.53;5.57;;;12.90;13.10;;;;;;4853054;29;20552;-46
2022/09/11 21:57:27;;;;;;;5.80;5.20;;;12.90;48.40;;;;;;4858981;29;20544;-46
2022/09/11 21:59:54;;;;;;;8.03;6.60;;;12.80;73.70;;;;;;4862898;29;20304;-46
2022/09/11 22:02:19;;;;;;;6.43;5.83;;;12.80;99.90;;;;;;4858279;29;20533;-46
2022/09/11 22:04:45;;;;;;;7.43;6.33;;;12.80;99.90;;;;;;4857086;29;20448;-46
2022/09/11 22:07:11;;;;;;;7.10;6.40;;;12.80;99.90;;;;;;4858194;29;20224;-46
2022/09/11 22:09:37;;;;;;;8.70;6.10;;;12.80;99.90;;;;;;4856398;29;20188;-47
2022/09/11 22:12:04;;;;;;;6.23;5.63;;;12.70;99.90;;;;;;4858344;29;20647;-46
2022/09/11 22:14:29;;;;;;;6.80;6.10;;;12.70;99.90;;;;;;4856734;29;20441;-46
2022/09/11 22:16:55;;;;;;;7.23;5.27;;;12.70;99.90;;;;;;4857481;29;20509;-46
2022/09/11 22:19:21;;;;;;;9.03;6.00;;;12.60;99.90;;;;;;4858288;29;20464;-46
2022/09/11 22:21:46;;;;;;;5.63;5.10;;;12.60;99.90;;;;;;4861768;29;20279;-46
2022/09/11 22:24:12;;;;;;;6.80;6.20;;;12.50;99.90;;;;;;4861533;29;20553;-46
2022/09/11 22:26:37;;;;;;;5.90;5.30;;;12.50;99.90;;;;;;4856636;29;20217;-45
2022/09/11 22:29:03;;;;;;;6.63;6.00;;;12.50;99.90;;;;;;4857082;29;20216;-46
2022/09/11 22:31:28;;;;;;;7.80;6.23;;;12.40;99.90;;;;;;4856270;29;20193;-46
2022/09/11 22:33:54;;;;;;;6.33;5.70;;;12.40;99.90;;;;;;4857159;29;20217;-46
2022/09/11 22:36:26;;;;;;;7.13;6.53;;;12.30;99.90;;;;;;4853050;29;20256;-46
2022/09/11 22:38:52;;;;;;;6.90;6.20;;;12.30;99.90;;;;;;4858057;29;20212;-46
2022/09/11 22:41:18;;;;;;;7.63;6.83;;;12.30;99.90;;;;;;4856361;29;20473;-46
2022/09/11 22:43:46;;;;;;;6.07;5.47;;;12.30;99.90;;;;;;4858018;29;20441;-46
2022/09/11 22:46:12;;;;;;;8.07;7.27;;;12.20;99.90;;;;;;4857609;29;20964;-46
2022/09/11 22:48:38;;;;;;;7.10;6.40;;;12.20;99.90;;;;;;4856035;29;21397;-46
2022/09/11 22:51:04;;;;;;;11.30;7.20;;;12.20;99.90;;;;;;4855622;29;20437;-46
2022/09/11 22:53:30;;;;;;;8.37;6.73;;;12.20;99.90;;;;;;4856445;29;20780;-46
2022/09/11 22:55:56;;;;;;;6.93;6.13;;;12.20;99.90;;;;;;4857128;29;20459;-46
2022/09/11 22:58:22;;;;;;;8.20;6.20;;;12.10;99.90;;;;;;4854685;29;20445;-46
2022/09/11 23:00:49;;;;;;;7.73;5.77;;;12.20;99.90;;;;;;4856611;29;20200;-46
2022/09/11 23:03:15;;;;;;;6.67;6.00;;;12.10;99.90;;;;;;4850289;29;21303;-46
2022/09/11 23:08:33;;;;;;;7.80;7.03;;;12.10;99.90;;;;;;4852284;29;20192;-45
2022/09/11 23:11:01;;;;;;;7.33;6.50;;;12.10;99.90;;;;;;4851316;29;20951;-46
2022/09/11 23:13:28;;;;;;;8.60;6.80;;;12.10;99.90;;;;;;4853729;29;20473;-46
2022/09/11 23:15:55;;;;;;;7.23;6.10;;;12.10;99.90;;;;;;4854290;29;20529;-46
2022/09/11 23:18:21;;;;;;;6.67;6.07;;;12.00;99.90;;;;;;4853151;29;20470;-46
2022/09/11 23:20:54;;;;;;;7.50;6.23;;;12.00;99.90;;;;;;4855116;29;20442;-46
2022/09/11 23:23:20;;;;;;;6.70;6.10;;;11.90;99.90;;;;;;4854660;29;20430;-46
2022/09/11 23:25:46;;;;;;;7.13;6.43;;;11.90;99.90;;;;;;4859638;29;20441;-46
2022/09/11 23:28:11;;;;;;;8.53;6.87;;;11.90;99.90;;;;;;4854172;29;20584;-46
2022/09/11 23:30:40;;;;;;;7.47;6.77;;;11.90;99.90;;;;;;4852893;29;20200;-47
2022/09/11 23:33:06;;;;;;;7.90;7.13;;;11.90;99.90;;;;;;4853615;29;20204;-46
2022/09/11 23:35:32;;;;;;;7.50;6.70;;;11.80;99.90;;;;;;4852013;29;20481;-46
2022/09/11 23:37:59;;;;;;;7.70;6.90;;;11.80;99.90;;;;;;4856408;29;20439;-46
2022/09/11 23:40:24;;;;;;;7.67;6.70;;;11.80;99.90;;;;;;4853837;29;20223;-45
2022/09/11 23:42:50;;;;;;;8.50;7.40;;;11.80;99.90;;;;;;4853223;29;20537;-47
2022/09/11 23:45:15;;;;;;;10.80;6.90;;;11.70;99.90;;;;;;4851863;29;20200;-45
2022/09/11 23:47:41;;;;;;;9.30;7.47;;;11.70;99.90;;;;;;4851092;29;20217;-46
2022/09/11 23:50:08;;;;;;;9.93;7.60;;;11.80;99.90;;;;;;4853682;29;20247;-46
2022/09/11 23:52:35;;;;;;;9.77;7.57;;;11.80;99.90;;;;;;4854455;29;20197;-46
2022/09/11 23:55:04;;;;;;;13.37;8.00;;;11.70;99.90;;;;;;4852430;29;20540;-45
2022/09/11 23:57:30;;;;;;;8.30;7.50;;;11.70;99.90;;;;;;4853858;29;21369;-46
2022/09/11 23:59:56;;;;;;;9.10;7.60;;;11.70;99.90;;;;;;4852547;29;20445;-46
